Time;durP1;ratioP1;P1;durP2;ratioP2;P2;SDS_P1;SDS_P2;PMS_P1;PMS_P2;Temp;Humidity;BMP_temperature;BMP_pressure;BME280_temperature;BME280_humidity;BME280_pressure;Samples;Min_cycle;Max_cycle;Signal;HPM_P1;HPM_P2
2022/11/20 00:00:57;;;;;;;14.38;8.50;;;0.90;99.90;;;;;;5037394;28;20474;-66
2022/11/20 00:03:23;;;;;;;14.38;7.85;;;0.90;99.90;;;;;;5043019;28;20039;-66
2022/11/20 00:05:48;;;;;;;10.98;7.53;;;1.00;99.90;;;;;;5039401;28;20085;-66
2022/11/20 00:08:15;;;;;;;19.90;8.60;;;1.00;99.90;;;;;;5047479;28;20471;-66
2022/11/20 00:10:41;;;;;;;13.80;8.25;;;1.00;99.90;;;;;;5048537;28;20041;-65
2022/11/20 00:13:07;;;;;;;13.25;8.73;;;1.00;99.90;;;;;;5046283;28;20056;-66
2022/11/20 00:15:34;;;;;;;16.10;9.02;;;1.00;99.90;;;;;;5049095;28;20045;-66
2022/11/20 00:18:00;;;;;;;14.63;7.28;;;1.00;99.90;;;;;;5047021;28;20120;-65
2022/11/20 00:20:25;;;;;;;10.63;6.90;;;1.00;99.90;;;;;;5049566;28;20634;-65
2022/11/20 00:22:51;;;;;;;14.18;7.22;;;1.00;99.90;;;;;;5047676;28;20087;-66
2022/11/20 00:25:17;;;;;;;9.15;7.10;;;1.00;99.90;;;;;;5048773;28;20055;-66
2022/11/20 00:27:44;;;;;;;13.48;7.00;;;1.10;99.90;;;;;;5047275;28;20499;-66
2022/11/20 00:30:10;;;;;;;15.57;7.90;;;1.10;99.90;;;;;;5048392;28;20084;-66
2022/11/20 00:32:35;;;;;;;17.15;7.05;;;1.10;99.90;;;;;;5047315;28;20460;-66
2022/11/20 00:35:01;;;;;;;10.77;7.05;;;1.10;99.90;;;;;;5048267;28;20068;-66
2022/11/20 00:37:27;;;;;;;14.45;7.30;;;1.10;99.90;;;;;;5048003;28;20060;-66
2022/11/20 00:39:52;;;;;;;9.80;6.78;;;1.10;99.90;;;;;;5047375;28;20037;-66
2022/11/20 00:42:18;;;;;;;10.65;6.88;;;1.10;99.90;;;;;;5048277;28;20037;-66
2022/11/20 00:44:44;;;;;;;8.02;7.05;;;1.10;99.90;;;;;;5046006;28;20494;-66
2022/11/20 00:47:10;;;;;;;11.90;7.30;;;1.10;99.90;;;;;;5049390;28;20057;-66
2022/11/20 00:49:36;;;;;;;10.23;7.70;;;1.10;99.90;;;;;;5046481;28;20479;-66
2022/11/20 00:52:02;;;;;;;13.23;6.13;;;1.10;99.90;;;;;;5048733;28;20037;-66
2022/11/20 00:54:28;;;;;;;9.65;5.25;;;1.20;99.90;;;;;;5049407;28;20395;-65
2022/11/20 00:56:54;;;;;;;9.48;7.07;;;1.20;99.90;;;;;;5041554;28;20033;-66
2022/11/20 00:59:19;;;;;;;11.55;6.63;;;1.20;99.90;;;;;;5048542;28;20141;-66
2022/11/20 01:01:45;;;;;;;9.00;6.30;;;1.20;99.90;;;;;;5042937;28;20052;-66
2022/11/20 01:04:11;;;;;;;11.65;6.45;;;1.20;99.90;;;;;;5049022;28;20479;-66
2022/11/20 01:06:38;;;;;;;10.95;7.00;;;1.20;99.90;;;;;;5046638;28;20055;-65
2022/11/20 01:09:07;;;;;;;11.75;7.10;;;1.20;99.90;;;;;;5048491;28;20075;-66
2022/11/20 01:11:36;;;;;;;9.32;6.40;;;1.20;99.90;;;;;;5034827;28;20113;-66
2022/11/20 01:14:04;;;;;;;13.07;6.78;;;1.20;99.90;;;;;;5045216;28;20049;-66
2022/11/20 01:16:33;;;;;;;16.25;8.73;;;1.20;99.90;;;;;;5048181;28;20078;-66
2022/11/20 01:19:00;;;;;;;11.68;7.70;;;1.20;99.90;;;;;;5046656;28;20930;-66
2022/11/20 01:21:32;;;;;;;10.73;8.40;;;1.20;99.90;;;;;;5048616;28;20124;-66
2022/11/20 01:23:58;;;;;;;12.15;7.63;;;1.20;99.90;;;;;;5047105;28;20487;-66
2022/11/20 01:26:27;;;;;;;13.75;8.77;;;1.10;99.90;;;;;;5046809;28;20088;-66
2022/11/20 01:28:54;;;;;;;12.00;7.35;;;1.20;99.90;;;;;;5048162;28;20423;-66
2022/11/20 01:31:21;;;;;;;10.32;7.05;;;1.10;99.90;;;;;;5046019;28;20051;-66
2022/11/20 01:33:49;;;;;;;14.77;7.60;;;1.10;99.90;;;;;;5046850;28;20052;-66
2022/11/20 01:36:16;;;;;;;14.68;8.88;;;1.10;99.90;;;;;;5046814;28;20037;-66
2022/11/20 01:38:42;;;;;;;12.48;8.98;;;1.00;99.90;;;;;;5048290;28;20387;-66
2022/11/20 01:41:09;;;;;;;11.05;8.98;;;1.00;99.90;;;;;;5047070;28;20045;-66
2022/11/20 01:43:35;;;;;;;12.50;9.20;;;1.00;99.90;;;;;;5048202;28;20045;-66
2022/11/20 01:46:14;;;;;;;18.08;8.90;;;1.00;99.90;;;;;;5047050;28;20068;-66
2022/11/20 01:48:48;;;;;;;11.35;7.75;;;1.00;99.90;;;;;;5045514;28;20499;-65
2022/11/20 01:51:23;;;;;;;19.40;9.18;;;1.00;99.90;;;;;;5046955;28;20052;-66
2022/11/20 01:53:51;;;;;;;14.45;10.02;;;1.00;99.90;;;;;;5045026;28;20045;-66
2022/11/20 01:56:17;;;;;;;16.30;8.55;;;1.00;99.90;;;;;;5047181;28;20049;-66
2022/11/20 01:58:52;;;;;;;14.50;9.38;;;1.00;99.90;;;;;;5041892;28;20036;-66
2022/11/20 02:01:18;;;;;;;11.82;8.82;;;1.10;99.90;;;;;;5036592;28;20048;-66
2022/11/20 02:03:44;;;;;;;12.98;9.15;;;1.10;99.90;;;;;;5045401;28;20076;-66
2022/11/20 02:06:16;;;;;;;11.45;8.82;;;1.00;99.90;;;;;;5046866;28;20053;-66
2022/11/20 02:08:42;;;;;;;14.63;8.25;;;1.10;99.90;;;;;;5041535;28;20037;-66
2022/11/20 02:11:08;;;;;;;9.00;6.55;;;1.00;99.90;;;;;;5045511;28;20056;-66
2022/11/20 02:13:43;;;;;;;9.27;6.90;;;1.00;99.90;;;;;;5030279;28;20041;-66
2022/11/20 02:16:11;;;;;;;13.55;7.20;;;1.00;99.90;;;;;;5046269;28;20557;-66
2022/11/20 02:18:39;;;;;;;12.90;7.43;;;1.00;99.90;;;;;;5047210;28;20047;-66
2022/11/20 02:21:16;;;;;;;11.88;7.32;;;1.00;99.90;;;;;;5026793;28;20049;-66
2022/11/20 02:24:05;;;;;;;15.25;7.65;;;1.00;99.90;;;;;;5026164;28;20042;-66
2022/11/20 02:26:53;;;;;;;12.20;6.90;;;1.00;99.90;;;;;;5027813;28;20079;-66
2022/11/20 02:29:33;;;;;;;8.18;7.10;;;1.00;99.90;;;;;;5015857;28;20049;-66
2022/11/20 02:32:01;;;;;;;10.68;7.30;;;1.00;99.90;;;;;;5008008;28;20056;-66
2022/11/20 02:34:27;;;;;;;10.60;7.07;;;1.00;99.90;;;;;;5009323;28;20053;-65
2022/11/20 02:36:53;;;;;;;14.73;8.35;;;0.90;99.90;;;;;;5026144;28;20049;-66
2022/11/20 02:39:20;;;;;;;15.30;8.98;;;1.00;99.90;;;;;;5009711;28;20053;-66
2022/11/20 02:41:46;;;;;;;14.48;8.75;;;0.90;99.90;;;;;;5025572;28;20037;-66
2022/11/20 02:44:12;;;;;;;11.32;8.10;;;0.90;99.90;;;;;;5026349;28;20179;-66
2022/11/20 02:46:37;;;;;;;11.88;8.20;;;1.00;99.90;;;;;;5026430;28;20045;-66
2022/11/20 02:49:04;;;;;;;12.68;8.32;;;1.00;99.90;;;;;;5025916;28;20034;-66
2022/11/20 02:51:31;;;;;;;10.38;7.28;;;1.00;99.90;;;;;;4992933;28;20054;-66
2022/11/20 02:53:57;;;;;;;13.82;8.98;;;1.00;99.90;;;;;;5007781;28;20041;-66
2022/11/20 02:56:23;;;;;;;9.52;6.65;;;1.00;99.90;;;;;;5009626;28;20055;-66
2022/11/20 02:58:49;;;;;;;12.65;8.57;;;1.00;99.90;;;;;;5025034;28;20145;-66
2022/11/20 03:01:15;;;;;;;12.55;8.32;;;1.00;99.90;;;;;;5031180;28;20133;-66
2022/11/20 03:03:41;;;;;;;10.77;8.00;;;1.00;99.90;;;;;;5028069;28;20040;-66
2022/11/20 03:06:07;;;;;;;11.90;8.70;;;1.00;99.90;;;;;;5026626;28;20053;-66
2022/11/20 03:08:33;;;;;;;10.05;7.90;;;1.00;99.90;;;;;;5009316;28;20396;-65
2022/11/20 03:11:04;;;;;;;11.25;8.05;;;1.00;99.90;;;;;;5025094;28;20034;-66
2022/11/20 03:13:30;;;;;;;13.65;9.07;;;1.00;99.90;;;;;;5027327;28;20056;-66
2022/11/20 03:15:56;;;;;;;12.43;7.85;;;1.00;99.90;;;;;;5025155;28;20045;-66
2022/11/20 03:18:22;;;;;;;13.63;8.32;;;1.00;99.90;;;;;;5027265;28;20041;-66
2022/11/20 03:20:48;;;;;;;13.13;9.00;;;1.00;99.90;;;;;;5042632;28;20392;-66
2022/11/20 03:23:13;;;;;;;10.82;7.95;;;1.00;99.90;;;;;;5046415;28;20049;-66
2022/11/20 03:25:39;;;;;;;16.05;9.00;;;1.10;99.90;;;;;;5046875;28;20116;-66
2022/11/20 03:28:05;;;;;;;13.00;8.48;;;1.10;99.90;;;;;;5044266;28;20433;-66
2022/11/20 03:30:30;;;;;;;13.13;8.15;;;1.10;99.90;;;;;;5045251;28;20120;-66
2022/11/20 03:32:56;;;;;;;11.43;7.95;;;1.10;99.90;;;;;;5043188;28;20052;-65
2022/11/20 03:35:21;;;;;;;13.05;8.50;;;1.00;99.90;;;;;;5046856;28;20088;-66
2022/11/20 03:37:48;;;;;;;11.65;7.55;;;1.00;99.90;;;;;;5044203;28;20110;-66
2022/11/20 03:40:14;;;;;;;10.93;8.43;;;1.00;99.90;;;;;;5047629;28;20123;-66
2022/11/20 03:42:46;;;;;;;14.65;8.18;;;1.10;99.90;;;;;;5049259;28;20124;-66
2022/11/20 03:45:17;;;;;;;10.13;8.25;;;1.10;99.90;;;;;;5031519;28;20040;-66
2022/11/20 03:47:43;;;;;;;11.90;8.38;;;1.10;99.90;;;;;;5050819;28;20084;-66
2022/11/20 03:50:12;;;;;;;9.80;7.97;;;1.10;99.90;;;;;;5048503;28;20040;-66
2022/11/20 03:52:38;;;;;;;10.38;7.50;;;1.10;99.90;;;;;;5050812;28;20045;-66
2022/11/20 03:55:05;;;;;;;9.85;7.15;;;1.20;99.90;;;;;;5048401;28;20066;-66
2022/11/20 03:57:30;;;;;;;11.80;7.65;;;1.10;99.90;;;;;;5050964;28;20083;-65
2022/11/20 03:59:56;;;;;;;10.23;6.93;;;1.20;99.90;;;;;;5047120;28;20124;-65
2022/11/20 04:02:22;;;;;;;11.57;7.15;;;1.20;99.90;;;;;;5049898;28;20135;-66
2022/11/20 04:04:48;;;;;;;9.07;7.28;;;1.10;99.90;;;;;;5048908;28;20060;-66
2022/11/20 04:07:14;;;;;;;8.43;6.65;;;1.10;99.90;;;;;;5047116;28;20052;-66
2022/11/20 04:09:39;;;;;;;8.77;6.85;;;1.10;99.90;;;;;;5050145;28;20148;-66
2022/11/20 04:12:05;;;;;;;8.95;6.82;;;1.20;99.90;;;;;;5048031;28;20048;-66
2022/11/20 04:14:31;;;;;;;7.97;6.22;;;1.20;99.90;;;;;;5050339;28;20138;-66
2022/11/20 04:16:56;;;;;;;10.07;7.15;;;1.20;99.90;;;;;;5048618;28;20057;-66
2022/11/20 04:19:22;;;;;;;9.02;5.88;;;1.20;99.90;;;;;;5047752;28;20055;-66
2022/11/20 04:21:48;;;;;;;9.55;5.43;;;1.20;99.90;;;;;;5047908;28;20105;-66
2022/11/20 04:24:14;;;;;;;7.72;5.47;;;1.20;99.90;;;;;;5046224;28;20049;-66
2022/11/20 04:26:41;;;;;;;8.25;5.82;;;1.10;99.90;;;;;;5049107;28;20049;-66
2022/11/20 04:29:06;;;;;;;7.10;4.90;;;1.10;99.90;;;;;;5048025;28;20056;-65
2022/11/20 04:31:34;;;;;;;7.32;5.22;;;1.10;99.90;;;;;;5049939;28;20040;-66
2022/11/20 04:34:02;;;;;;;9.65;7.07;;;1.20;99.90;;;;;;5047764;28;20073;-66
2022/11/20 04:36:28;;;;;;;7.10;4.60;;;1.10;99.90;;;;;;5049804;28;20037;-66
2022/11/20 04:38:56;;;;;;;9.00;7.13;;;1.20;99.90;;;;;;5047553;28;20096;-65
2022/11/20 04:41:33;;;;;;;10.10;6.85;;;1.10;99.90;;;;;;5047517;28;20049;-66
2022/11/20 04:44:04;;;;;;;8.82;6.30;;;1.10;99.90;;;;;;5049066;28;20487;-66
2022/11/20 04:46:35;;;;;;;9.55;7.03;;;1.10;99.90;;;;;;5046845;28;20048;-66
2022/11/20 04:49:02;;;;;;;8.93;6.25;;;1.10;99.90;;;;;;5049795;28;20475;-65
2022/11/20 04:51:28;;;;;;;9.68;6.82;;;1.10;99.90;;;;;;5045209;28;20076;-66
2022/11/20 04:53:54;;;;;;;7.85;6.00;;;1.10;99.90;;;;;;5031305;28;20071;-66
2022/11/20 04:56:20;;;;;;;13.18;6.80;;;1.10;99.90;;;;;;5046299;28;20619;-66
2022/11/20 04:58:46;;;;;;;8.20;6.25;;;1.10;99.90;;;;;;5048706;28;20044;-66
2022/11/20 05:01:14;;;;;;;12.40;7.88;;;1.10;99.90;;;;;;5047767;28;20056;-66
2022/11/20 05:03:41;;;;;;;11.77;7.45;;;1.10;99.90;;;;;;5047818;28;20051;-66
2022/11/20 05:06:08;;;;;;;25.60;7.45;;;1.10;99.90;;;;;;5046888;28;20049;-65
2022/11/20 05:08:34;;;;;;;9.27;6.97;;;1.10;99.90;;;;;;5047364;28;20474;-66
2022/11/20 05:11:08;;;;;;;12.15;7.30;;;1.10;99.90;;;;;;5047520;28;20057;-66
2022/11/20 05:13:34;;;;;;;12.38;7.43;;;1.10;99.90;;;;;;5047930;28;20115;-65
2022/11/20 05:16:10;;;;;;;10.63;7.40;;;1.10;99.90;;;;;;5048547;28;20442;-66
2022/11/20 05:18:37;;;;;;;14.68;7.00;;;1.10;99.90;;;;;;5048492;28;20406;-66
2022/11/20 05:21:03;;;;;;;11.77;7.78;;;1.10;99.90;;;;;;5045807;28;20049;-66
2022/11/20 05:23:30;;;;;;;11.10;7.65;;;1.00;99.90;;;;;;5030801;28;20110;-66
2022/11/20 05:25:57;;;;;;;8.57;6.80;;;1.10;99.90;;;;;;5046864;28;20113;-65
2022/11/20 05:28:23;;;;;;;11.20;7.93;;;1.10;99.90;;;;;;5048462;28;20040;-65
2022/11/20 05:30:49;;;;;;;12.70;8.38;;;1.10;99.90;;;;;;5045760;28;20388;-66
2022/11/20 05:33:15;;;;;;;12.02;7.80;;;1.10;99.90;;;;;;5047632;28;20049;-66
2022/11/20 05:35:41;;;;;;;9.27;7.38;;;1.10;99.90;;;;;;5048561;28;20080;-66
2022/11/20 05:38:07;;;;;;;10.43;7.68;;;1.00;99.90;;;;;;5046467;28;20463;-65
2022/11/20 05:40:34;;;;;;;14.18;7.72;;;1.00;99.90;;;;;;5048707;28;20041;-65
2022/11/20 05:43:01;;;;;;;12.10;7.65;;;1.00;99.90;;;;;;5047045;28;20048;-66
2022/11/20 05:45:26;;;;;;;12.63;7.60;;;1.00;99.90;;;;;;5048158;28;20286;-66
2022/11/20 05:47:52;;;;;;;8.32;6.88;;;1.10;99.90;;;;;;5046015;28;20407;-66
2022/11/20 05:50:18;;;;;;;9.65;7.15;;;1.10;99.90;;;;;;5047880;28;20048;-65
2022/11/20 05:52:44;;;;;;;9.77;7.30;;;1.00;99.90;;;;;;5048020;28;20041;-65
2022/11/20 05:55:10;;;;;;;12.63;7.35;;;1.00;99.90;;;;;;5047046;28;20111;-66
2022/11/20 05:57:35;;;;;;;12.30;7.82;;;1.00;99.90;;;;;;5047732;28;20755;-66
2022/11/20 06:00:03;;;;;;;12.85;8.32;;;1.00;99.90;;;;;;5046109;28;20040;-66
2022/11/20 06:02:28;;;;;;;15.50;8.07;;;1.00;99.90;;;;;;5047174;28;20520;-66
2022/11/20 06:04:54;;;;;;;10.02;7.75;;;1.00;99.90;;;;;;5045096;28;20136;-66
2022/11/20 06:07:19;;;;;;;9.35;7.35;;;1.00;99.90;;;;;;5047594;28;20048;-66
2022/11/20 06:09:45;;;;;;;10.38;6.95;;;1.00;99.90;;;;;;5045841;28;20485;-66
2022/11/20 06:12:11;;;;;;;10.23;7.13;;;1.00;99.90;;;;;;5047838;28;20131;-66
2022/11/20 06:14:36;;;;;;;9.93;8.07;;;1.00;99.90;;;;;;5047565;28;20390;-66
2022/11/20 06:17:02;;;;;;;11.55;7.00;;;1.00;99.90;;;;;;5045309;28;20123;-66
2022/11/20 06:19:28;;;;;;;11.23;7.63;;;1.00;99.90;;;;;;5046691;28;20154;-66
2022/11/20 06:21:54;;;;;;;12.73;8.23;;;1.00;99.90;;;;;;5044902;28;20048;-66
2022/11/20 06:24:20;;;;;;;11.23;7.72;;;1.00;99.90;;;;;;5047901;28;20055;-66
2022/11/20 06:26:46;;;;;;;11.93;8.02;;;1.10;99.90;;;;;;5046102;28;20395;-66
2022/11/20 06:29:13;;;;;;;10.40;8.43;;;1.00;99.90;;;;;;5046278;28;20064;-66
2022/11/20 06:31:38;;;;;;;11.63;8.20;;;1.10;99.90;;;;;;5033876;28;20051;-66
2022/11/20 06:34:06;;;;;;;12.68;8.15;;;1.00;99.90;;;;;;5045588;28;20053;-66
2022/11/20 06:36:32;;;;;;;14.13;9.15;;;1.00;99.90;;;;;;5045783;28;20466;-66
2022/11/20 06:38:58;;;;;;;11.10;8.07;;;1.00;99.90;;;;;;5044994;28;20124;-65
2022/11/20 06:41:25;;;;;;;13.50;7.88;;;1.00;99.90;;;;;;5045151;28;20116;-66
2022/11/20 06:43:51;;;;;;;10.55;7.65;;;1.00;99.90;;;;;;5045848;28;20052;-66
2022/11/20 06:46:18;;;;;;;9.95;7.63;;;1.00;99.90;;;;;;5046360;28;20048;-66
2022/11/20 06:48:44;;;;;;;12.20;8.13;;;1.00;99.90;;;;;;5046292;28;20098;-66
2022/11/20 06:51:10;;;;;;;14.02;8.02;;;1.00;99.90;;;;;;5047324;28;20085;-67
2022/11/20 06:53:36;;;;;;;9.77;7.90;;;1.00;99.90;;;;;;5039804;28;20036;-65
2022/11/20 06:56:03;;;;;;;11.55;7.50;;;1.00;99.90;;;;;;5037900;28;20044;-66
2022/11/20 06:58:31;;;;;;;9.07;7.50;;;1.00;99.90;;;;;;5045416;28;20039;-65
2022/11/20 07:01:02;;;;;;;16.98;8.45;;;1.00;99.90;;;;;;5034869;28;20029;-66
2022/11/20 07:03:28;;;;;;;11.52;8.18;;;1.00;99.90;;;;;;5044953;28;20068;-66
2022/11/20 07:05:58;;;;;;;11.02;7.88;;;1.00;99.90;;;;;;5044726;28;20067;-66
2022/11/20 07:08:24;;;;;;;9.98;7.75;;;1.00;99.90;;;;;;5046503;28;20102;-66
2022/11/20 07:10:50;;;;;;;12.27;7.45;;;1.00;99.90;;;;;;5046099;28;20494;-66
2022/11/20 07:13:16;;;;;;;9.15;7.57;;;1.00;99.90;;;;;;5045865;28;20119;-66
2022/11/20 07:15:42;;;;;;;9.93;7.45;;;1.00;99.90;;;;;;5042119;28;20479;-66
2022/11/20 07:18:08;;;;;;;9.52;7.05;;;1.00;99.90;;;;;;5049689;28;20103;-66
2022/11/20 07:20:34;;;;;;;10.48;7.82;;;1.00;99.90;;;;;;5050565;28;20506;-66
2022/11/20 07:23:00;;;;;;;9.93;7.20;;;1.10;99.90;;;;;;5049067;28;20045;-66
2022/11/20 07:25:27;;;;;;;9.70;7.68;;;1.00;99.90;;;;;;5050625;28;20480;-66
2022/11/20 07:28:00;;;;;;;15.00;7.60;;;1.10;99.90;;;;;;5049630;28;20074;-66
2022/11/20 07:30:27;;;;;;;8.90;7.10;;;1.10;99.90;;;;;;5050180;28;20478;-66
2022/11/20 07:32:55;;;;;;;9.02;7.20;;;1.10;99.90;;;;;;5050106;28;20080;-66
2022/11/20 07:35:21;;;;;;;12.38;7.20;;;1.10;99.90;;;;;;5047738;28;20068;-66
2022/11/20 07:37:48;;;;;;;9.23;7.07;;;1.10;99.90;;;;;;5049027;28;20048;-66
2022/11/20 07:40:15;;;;;;;9.70;7.47;;;1.20;99.90;;;;;;5049247;28;20044;-66
2022/11/20 07:42:54;;;;;;;10.30;7.15;;;1.10;99.90;;;;;;5049551;28;20041;-66
2022/11/20 07:45:23;;;;;;;14.53;6.87;;;1.20;99.90;;;;;;5041243;28;20168;-66
2022/11/20 07:47:49;;;;;;;10.82;6.93;;;1.20;99.90;;;;;;5049660;28;20550;-65
2022/11/20 07:50:15;;;;;;;9.77;7.25;;;1.20;99.90;;;;;;5049154;28;20433;-65
2022/11/20 07:52:42;;;;;;;8.85;6.95;;;1.20;99.90;;;;;;5048295;28;20502;-66
2022/11/20 07:55:09;;;;;;;10.88;7.90;;;1.20;99.90;;;;;;5048697;28;20577;-66
2022/11/20 07:57:35;;;;;;;8.48;6.72;;;1.20;99.90;;;;;;5048409;28;20048;-65
2022/11/20 08:00:02;;;;;;;9.10;6.88;;;1.20;99.90;;;;;;5048876;28;20049;-66
2022/11/20 08:02:28;;;;;;;8.82;6.72;;;1.20;99.90;;;;;;5043202;28;20118;-66
2022/11/20 08:04:53;;;;;;;9.27;6.65;;;1.30;99.90;;;;;;5050087;28;20506;-66
2022/11/20 08:07:19;;;;;;;9.43;6.45;;;1.30;99.90;;;;;;5049918;28;20048;-66
2022/11/20 08:09:45;;;;;;;10.50;6.68;;;1.30;99.90;;;;;;5048662;28;20068;-66
2022/11/20 08:15:06;;;;;;;10.68;7.15;;;1.30;99.90;;;;;;5048787;28;20033;-66
2022/11/20 08:17:32;;;;;;;9.32;6.88;;;1.30;99.90;;;;;;5049501;28;20430;-66
2022/11/20 08:19:58;;;;;;;9.80;6.43;;;1.40;99.90;;;;;;5030869;28;20053;-66
2022/11/20 08:22:24;;;;;;;8.50;6.78;;;1.40;99.90;;;;;;5048822;28;20053;-66
2022/11/20 08:24:50;;;;;;;9.35;7.05;;;1.40;99.90;;;;;;5030067;28;20099;-65
2022/11/20 08:27:16;;;;;;;9.82;6.72;;;1.40;99.90;;;;;;5047881;28;20053;-66
2022/11/20 08:29:42;;;;;;;8.50;6.63;;;1.40;99.90;;;;;;5030510;28;20044;-66
2022/11/20 08:32:07;;;;;;;8.35;5.93;;;1.50;99.90;;;;;;5048337;28;20041;-65
2022/11/20 08:34:33;;;;;;;9.27;6.57;;;1.50;99.90;;;;;;5049218;28;20048;-65
2022/11/20 08:36:59;;;;;;;8.90;6.63;;;1.50;99.90;;;;;;5040336;28;20083;-66
2022/11/20 08:39:25;;;;;;;8.23;6.05;;;1.60;99.90;;;;;;5044258;28;20102;-65
2022/11/20 08:41:50;;;;;;;7.18;5.38;;;1.60;99.90;;;;;;5061509;28;20044;-65
2022/11/20 08:44:16;;;;;;;11.80;6.60;;;1.60;99.90;;;;;;5045086;28;20256;-66
2022/11/20 08:46:43;;;;;;;8.65;6.70;;;1.70;99.90;;;;;;5047117;28;20069;-66
2022/11/20 08:49:11;;;;;;;7.70;6.30;;;1.70;99.90;;;;;;5045430;28;20057;-66
2022/11/20 08:51:38;;;;;;;8.88;5.30;;;1.70;99.90;;;;;;5046540;28;20427;-66
2022/11/20 08:54:05;;;;;;;10.40;6.85;;;1.70;99.90;;;;;;5046309;28;20068;-65
2022/11/20 08:56:31;;;;;;;9.43;6.72;;;1.80;99.90;;;;;;5047039;28;20136;-66
2022/11/20 08:58:59;;;;;;;9.45;6.88;;;1.80;99.90;;;;;;5046747;28;20040;-66
2022/11/20 09:01:26;;;;;;;10.90;6.50;;;1.80;99.90;;;;;;5044713;28;20041;-65
2022/11/20 09:03:51;;;;;;;9.65;6.82;;;1.80;99.90;;;;;;5045764;28;20394;-66
2022/11/20 09:06:17;;;;;;;9.57;6.32;;;1.80;99.90;;;;;;5045777;28;20041;-66
2022/11/20 09:08:43;;;;;;;10.00;6.45;;;1.80;99.90;;;;;;5046807;28;20103;-65
2022/11/20 09:11:10;;;;;;;10.88;6.85;;;1.90;99.90;;;;;;5045441;28;20538;-66
2022/11/20 09:13:36;;;;;;;9.55;6.70;;;2.00;99.90;;;;;;5044603;28;20072;-65
2022/11/20 09:16:06;;;;;;;7.60;5.55;;;2.00;99.90;;;;;;5044390;28;20040;-66
2022/11/20 09:18:33;;;;;;;10.50;7.13;;;2.00;99.90;;;;;;5045694;28;20033;-66
2022/11/20 09:21:00;;;;;;;10.63;7.25;;;2.10;99.90;;;;;;5048536;28;20090;-65
2022/11/20 09:23:27;;;;;;;7.93;6.10;;;2.10;99.90;;;;;;5045462;28;20099;-65
2022/11/20 09:25:55;;;;;;;9.27;6.32;;;2.20;99.90;;;;;;5046403;28;20075;-65
2022/11/20 09:28:22;;;;;;;12.75;7.45;;;2.20;99.90;;;;;;5046705;28;20115;-64
2022/11/20 09:30:47;;;;;;;9.82;7.10;;;2.20;99.90;;;;;;5048450;28;20044;-64
2022/11/20 09:33:13;;;;;;;14.32;7.55;;;2.30;99.90;;;;;;5044023;28;20119;-64
2022/11/20 09:35:39;;;;;;;9.48;6.75;;;2.30;99.90;;;;;;5048098;28;20049;-64
2022/11/20 09:38:06;;;;;;;8.50;5.80;;;2.30;99.90;;;;;;5047177;28;20037;-64
2022/11/20 09:40:35;;;;;;;7.80;6.65;;;2.40;99.90;;;;;;5047119;28;20513;-65
2022/11/20 09:43:15;;;;;;;8.27;6.40;;;2.40;99.90;;;;;;5048307;28;20116;-64
2022/11/20 09:45:41;;;;;;;;;;;2.50;99.90;;;;;;5046197;28;20052;-64
2022/11/20 09:48:36;;;;;;;7.43;6.05;;;2.50;99.90;;;;;;5049001;28;20345;-64
2022/11/20 09:51:22;;;;;;;7.95;5.80;;;2.50;99.90;;;;;;5033050;28;20457;-64
2022/11/20 09:54:00;;;;;;;8.77;5.80;;;2.60;99.90;;;;;;5046014;28;20044;-64
2022/11/20 09:56:28;;;;;;;8.20;6.43;;;2.60;99.90;;;;;;5048303;28;20503;-64
2022/11/20 09:59:02;;;;;;;7.35;5.95;;;2.70;99.90;;;;;;5046282;28;20475;-64
2022/11/20 10:01:35;;;;;;;10.10;5.50;;;2.70;99.90;;;;;;5048581;28;20041;-65
2022/11/20 10:04:13;;;;;;;7.63;5.63;;;2.70;99.90;;;;;;5047094;28;20033;-64
2022/11/20 10:06:47;;;;;;;6.07;5.20;;;2.70;99.90;;;;;;5045042;28;20053;-64
2022/11/20 10:09:17;;;;;;;5.68;4.60;;;2.70;99.90;;;;;;5047966;28;20048;-64
2022/11/20 10:11:55;;;;;;;7.40;6.22;;;2.70;99.90;;;;;;5046022;28;20156;-64
2022/11/20 10:14:36;;;;;;;9.48;5.22;;;2.80;99.90;;;;;;5047873;28;20049;-64
2022/11/20 10:17:20;;;;;;;7.20;5.72;;;2.80;99.90;;;;;;5047534;28;20045;-64
2022/11/20 10:20:13;;;;;;;7.18;5.53;;;2.80;99.90;;;;;;5032033;28;20142;-64
2022/11/20 10:22:51;;;;;;;6.07;5.25;;;2.90;99.90;;;;;;5047766;28;20183;-64
2022/11/20 10:25:40;;;;;;;6.85;5.10;;;2.90;99.90;;;;;;5045974;28;20493;-64
2022/11/20 10:28:18;;;;;;;5.78;4.50;;;2.90;99.90;;;;;;5045116;28;20060;-64
2022/11/20 10:30:48;;;;;;;5.13;4.57;;;3.00;99.90;;;;;;5047080;28;20094;-64
2022/11/20 10:33:19;;;;;;;;;;;3.10;99.90;;;;;;5046032;28;20045;-64
2022/11/20 10:35:50;;;;;;;;;;;3.10;99.90;;;;;;5046592;28;19960;-78
2022/11/20 10:38:40;;;;;;;6.05;4.43;;;3.10;99.90;;;;;;5045965;28;20305;-64
2022/11/20 10:41:24;;;;;;;9.13;4.63;;;3.20;99.90;;;;;;5046652;28;20033;-64
2022/11/20 10:47:04;;;;;;;17.85;6.15;;;3.20;99.90;;;;;;5032462;28;20049;-64
2022/11/20 10:49:33;;;;;;;8.65;6.00;;;3.20;99.90;;;;;;5047288;28;20099;-64
2022/11/20 10:52:04;;;;;;;11.05;6.78;;;3.30;99.90;;;;;;5046055;28;20045;-64
2022/11/20 10:54:49;;;;;;;8.27;6.50;;;3.30;99.90;;;;;;5045728;28;20091;-64
2022/11/20 10:57:38;;;;;;;9.32;6.82;;;3.30;99.90;;;;;;5044944;28;20049;-64
2022/11/20 11:00:17;;;;;;;8.95;7.22;;;3.30;99.90;;;;;;5045668;28;20049;-64
2022/11/20 11:02:53;;;;;;;9.80;7.50;;;3.40;99.90;;;;;;5042075;28;20090;-65
2022/11/20 11:05:33;;;;;;;9.40;6.72;;;3.40;99.90;;;;;;5047270;28;20048;-65
2022/11/20 11:07:59;;;;;;;8.98;6.55;;;3.40;99.90;;;;;;5045461;28;20037;-65
2022/11/20 11:10:48;;;;;;;11.25;6.65;;;3.40;99.90;;;;;;5046975;28;20045;-64
2022/11/20 11:13:28;;;;;;;10.70;7.45;;;3.40;99.90;;;;;;5042299;28;20052;-65
2022/11/20 11:15:54;;;;;;;9.63;7.47;;;3.40;99.90;;;;;;5045749;28;20073;-65
2022/11/20 11:18:29;;;;;;;9.65;7.13;;;3.40;99.90;;;;;;5047186;28;20545;-65
2022/11/20 11:20:56;;;;;;;8.82;6.63;;;3.40;99.90;;;;;;5044887;28;20584;-86
2022/11/20 11:23:36;;;;;;;9.30;6.47;;;3.50;99.90;;;;;;5047192;28;20090;-65
2022/11/20 11:26:04;;;;;;;7.57;6.63;;;3.50;99.90;;;;;;5045139;28;20057;-65
2022/11/20 11:28:30;;;;;;;9.07;7.05;;;3.50;99.90;;;;;;5045051;28;20194;-65
2022/11/20 11:30:56;;;;;;;8.82;6.50;;;3.50;99.90;;;;;;5046129;28;20037;-65
2022/11/20 11:33:26;;;;;;;9.40;6.10;;;3.60;99.90;;;;;;5043745;28;20522;-65
2022/11/20 11:35:59;;;;;;;8.85;7.13;;;3.60;99.90;;;;;;5046811;28;20100;-65
2022/11/20 11:38:43;;;;;;;7.95;6.30;;;3.60;99.90;;;;;;5044838;28;20079;-66
2022/11/20 11:41:18;;;;;;;7.82;6.45;;;3.70;99.90;;;;;;5046211;28;20053;-66
2022/11/20 11:46:54;;;;;;;10.30;7.05;;;3.60;99.90;;;;;;5044795;28;20534;-86
2022/11/20 11:49:20;;;;;;;8.32;5.80;;;3.60;99.90;;;;;;5046949;28;20498;-66
2022/11/20 11:52:07;;;;;;;7.10;6.22;;;3.60;99.90;;;;;;5045161;28;20438;-66
2022/11/20 11:54:45;;;;;;;9.50;6.22;;;3.60;99.90;;;;;;5044595;28;20048;-66
2022/11/20 11:57:37;;;;;;;6.18;5.53;;;3.70;99.90;;;;;;5044117;28;20490;-66
2022/11/20 12:00:10;;;;;;;7.63;6.00;;;3.60;99.90;;;;;;5038407;28;20453;-66
2022/11/20 12:02:46;;;;;;;6.20;5.60;;;3.70;99.90;;;;;;5050299;28;20506;-66
2022/11/20 12:05:26;;;;;;;6.72;5.55;;;3.70;99.90;;;;;;5049153;28;20090;-66
2022/11/20 12:08:14;;;;;;;8.10;5.95;;;3.70;99.90;;;;;;5047505;28;20045;-66
2022/11/20 12:10:44;;;;;;;5.65;5.15;;;3.70;99.90;;;;;;5050298;28;20152;-66
2022/11/20 12:13:44;;;;;;;7.97;5.53;;;3.70;99.90;;;;;;5047219;28;20059;-66
2022/11/20 12:16:14;;;;;;;6.13;4.70;;;3.80;99.90;;;;;;5048966;28;20096;-66
2022/11/20 12:18:42;;;;;;;7.72;5.65;;;3.80;99.90;;;;;;5050222;28;20045;-66
2022/11/20 12:21:23;;;;;;;5.45;4.95;;;3.80;99.90;;;;;;5047770;28;20102;-67
2022/11/20 12:24:08;;;;;;;6.32;5.38;;;3.80;99.90;;;;;;5050288;28;20053;-66
2022/11/20 12:26:52;;;;;;;8.45;6.97;;;3.90;99.90;;;;;;5046514;28;20052;-64
2022/11/20 12:29:40;;;;;;;9.63;7.22;;;4.00;99.90;;;;;;5048711;28;20052;-77
2022/11/20 12:32:14;;;;;;;12.30;7.90;;;4.10;99.90;;;;;;5048517;28;20836;-64
2022/11/20 12:35:14;;;;;;;12.93;8.23;;;4.10;99.90;;;;;;5047945;28;20130;-66
2022/11/20 12:38:15;;;;;;;11.05;7.00;;;4.10;99.90;;;;;;5048011;28;20571;-66
2022/11/20 12:40:47;;;;;;;16.92;7.50;;;4.00;99.90;;;;;;5025811;28;20049;-66
2022/11/20 12:46:19;;;;;;;12.07;8.07;;;4.00;99.90;;;;;;5048645;28;20045;-83
2022/11/20 12:49:07;;;;;;;10.18;7.28;;;4.10;99.90;;;;;;5048951;28;20045;-67
2022/11/20 12:51:36;;;;;;;8.85;7.20;;;4.10;99.90;;;;;;5045892;28;20045;-66
2022/11/20 12:54:21;;;;;;;10.15;7.50;;;4.00;99.90;;;;;;5047490;28;20055;-66
2022/11/20 12:57:09;;;;;;;12.65;8.88;;;3.90;99.90;;;;;;5046982;28;20060;-66
2022/11/20 13:00:13;;;;;;;11.05;7.63;;;3.70;99.90;;;;;;5048292;28;20049;-66
2022/11/20 13:02:45;;;;;;;9.77;5.82;;;3.70;99.90;;;;;;5043955;28;20053;-66
2022/11/20 13:05:34;;;;;;;11.82;5.95;;;3.60;99.90;;;;;;5047137;28;20445;-66
2022/11/20 13:08:01;;;;;;;9.20;5.95;;;3.50;99.90;;;;;;5037110;28;20060;-67
2022/11/20 13:10:43;;;;;;;6.15;5.50;;;3.50;99.90;;;;;;5048890;28;20048;-82
2022/11/20 13:13:12;;;;;;;7.65;5.00;;;3.40;99.90;;;;;;5034188;28;20071;-66
2022/11/20 13:15:54;;;;;;;6.63;5.70;;;3.40;99.90;;;;;;5049234;28;20084;-66
2022/11/20 13:18:20;;;;;;;7.82;5.40;;;3.40;99.90;;;;;;5046617;28;20037;-66